This is the latest recevied weather packets stored in our database for station/object IA5ITY-13. If no packets are shown the sender has not sent any weather packets the latest 1 day(s).
| Time | Temp. | Humidity | Pressure | Rain* | Wind** | Luminosity | Snow |
|---|---|---|---|---|---|---|---|
| 1777993509 | 20° C | 96% | 1011.4 hPa | 0 mm | 0 m/s | - | - |
| 1777993234 | 20° C | 97% | 1011.5 hPa | 0 mm | 0 m/s | - | - |
| 1777992613 | 20° C | 98% | 1011.4 hPa | 0 mm | 0 m/s | - | - |
| 1777992314 | 20° C | 97% | 1011.6 hPa | 0 mm | 0 m/s | - | - |
| 1777992013 | 20° C | 96% | 1011.6 hPa | 0 mm | 0 m/s | - | - |
| 1777991710 | 20° C | 94% | 1011.5 hPa | 0 mm | 0 m/s | - | - |
| 1777991425 | 21.11° C | 90% | 1011.5 hPa | 0 mm | 0 m/s | - | - |
| 1777991109 | 22.22° C | 86% | 1011.5 hPa | 0 mm | 0 m/s | - | - |
| 1777990813 | 22.78° C | 82% | 1011.4 hPa | 0 mm | 0 m/s | - | - |
| 1777990514 | 22.78° C | 75% | 1011.3 hPa | 0 mm | 0 m/s | - | - |
| 1777990213 | 22.78° C | 75% | 1011.3 hPa | 0 mm | 0 m/s | - | - |
| 1777989635 | 25° C | 70% | 1011.2 hPa | 0 mm | 0 m/s | - | - |
| 1777989312 | 22.78° C | 79% | 1011.3 hPa | 0 mm | 0 m/s | - | - |
| 1777989014 | 22.22° C | 85% | 1011.4 hPa | 0 mm | 0 m/s | - | - |
| 1777988713 | 22.78° C | 77% | 1011.4 hPa | 0 mm | 0 m/s | - | - |
| 1777988415 | 22.78° C | 76% | 1011.4 hPa | 0 mm | 0 m/s | - | - |
| 1777988111 | 23.89° C | 72% | 1011.3 hPa | 0 mm | 0 m/s | - | - |
| 1777987832 | 25° C | 69% | 1011.5 hPa | 0 mm | 0 m/s | - | - |
| 1777987510 | 26.11° C | 76% | 1011.5 hPa | 0 mm | 0 m/s | - | - |
| 1777987214 | 22.78° C | 81% | 1011.5 hPa | 0 mm | 0 m/s | - | - |
| 1777986913 | 22.78° C | 87% | 1011.6 hPa | 0 mm | 0 m/s | - | - |
| 1777986613 | 21.11° C | 93% | 1011.7 hPa | 0 mm | 0 m/s | - | - |
| 1777986309 | 21.11° C | 96% | 1011.6 hPa | 0 mm | 0.45 m/s, 55° | - | - |
| 1777986033 | 20° C | 95% | 1011.7 hPa | 0 mm | 0.89 m/s, 97° | - | - |
| 1777985709 | 21.11° C | 91% | 1011.7 hPa | 0 mm | 0 m/s | - | - |
* Rain latest hour (hover to see other rain measurements)
** Current wind speed in m/s (hover to see current wind gust speed)